Time;durP1;ratioP1;P1;durP2;ratioP2;P2;SDS_P1;SDS_P2;PMS_P1;PMS_P2;Temp;Humidity;BMP_temperature;BMP_pressure;BME280_temperature;BME280_humidity;BME280_pressure;Samples;Min_cycle;Max_cycle;Signal;HPM_P1;HPM_P2
2021/03/30 00:00:37;;;;;;;61.87;28.53;;;;;;;7.59;90.13;102466.41;5054229;28;20111;-77
2021/03/30 00:03:03;;;;;;;70.70;30.05;;;;;;;7.54;90.00;102469.38;5053828;28;20044;-77
2021/03/30 00:05:28;;;;;;;63.00;29.37;;;;;;;7.53;89.92;102464.13;5053986;28;20119;-77
2021/03/30 00:07:54;;;;;;;66.93;28.37;;;;;;;7.54;89.91;102465.84;5052776;28;20340;-77
2021/03/30 00:10:26;;;;;;;73.00;29.43;;;;;;;7.54;89.79;102465.84;5053766;28;20037;-78
2021/03/30 00:12:51;;;;;;;78.78;30.38;;;;;;;7.58;90.00;102464.69;5053774;28;20033;-77
2021/03/30 00:15:17;;;;;;;70.37;29.17;;;;;;;7.58;89.95;102465.53;5053500;28;20458;-76
2021/03/30 00:17:43;;;;;;;59.20;29.03;;;;;;;7.58;89.95;102475.31;5053389;28;20045;-77
2021/03/30 00:20:14;;;;;;;62.33;27.52;;;;;;;7.61;89.83;102468.00;5053608;28;20033;-77
2021/03/30 00:22:40;;;;;;;70.63;31.05;;;;;;;7.58;89.57;102472.66;5052612;28;20029;-76
2021/03/30 00:25:07;;;;;;;80.07;28.98;;;;;;;7.54;89.47;102484.47;5053495;28;20029;-76
2021/03/30 00:27:33;;;;;;;70.32;31.92;;;;;;;7.54;89.79;102472.03;5052248;28;20106;-77
2021/03/30 00:29:58;;;;;;;76.37;32.80;;;;;;;7.50;89.62;102485.59;5052743;28;20447;-77
2021/03/30 00:32:23;;;;;;;71.77;31.57;;;;;;;7.48;89.56;102482.19;5054011;28;20120;-77
2021/03/30 00:34:49;;;;;;;90.80;34.80;;;;;;;7.47;89.63;102494.63;5053202;28;20033;-77
2021/03/30 00:37:14;;;;;;;65.23;32.80;;;;;;;7.45;89.90;102479.75;5054686;28;20072;-78
2021/03/30 00:39:40;;;;;;;91.75;35.55;;;;;;;7.48;90.10;102480.38;5053066;28;20041;-77
2021/03/30 00:42:05;;;;;;;74.50;32.00;;;;;;;7.56;90.09;102477.22;5053115;28;20059;-77
2021/03/30 00:44:31;;;;;;;79.38;34.25;;;;;;;7.60;89.91;102474.25;5053497;28;20044;-77
2021/03/30 00:46:58;;;;;;;77.07;31.90;;;;;;;7.57;89.57;102474.47;5052508;28;20033;-77
2021/03/30 00:49:24;;;;;;;68.72;33.90;;;;;;;7.50;89.50;102475.81;5053046;28;20045;-77
2021/03/30 00:51:49;;;;;;;72.53;33.80;;;;;;;7.45;89.83;102469.97;5052346;28;20037;-77
2021/03/30 00:54:33;;;;;;;73.07;34.65;;;;;;;7.44;89.85;102480.69;5053493;28;20060;-77
2021/03/30 00:57:07;;;;;;;83.13;33.47;;;;;;;7.42;89.85;102472.78;5052172;28;20102;-76
2021/03/30 00:59:32;;;;;;;;;;;;;;;7.41;89.82;102476.41;5052272;28;20041;-76
2021/03/30 01:01:58;;;;;;;;;;;;;;;7.40;90.04;102472.06;5053595;28;19912;-77
2021/03/30 01:04:23;;;;;;;84.10;35.00;;;;;;;7.39;89.96;102473.84;5053231;28;19939;-77
2021/03/30 01:06:49;;;;;;;80.78;37.10;;;;;;;7.36;90.25;102479.38;5052083;28;20041;-76
2021/03/30 01:09:39;;;;;;;80.22;36.25;;;;;;;7.30;90.20;102485.06;5034943;28;20040;-78
2021/03/30 01:12:22;;;;;;;73.25;34.05;;;;;;;7.31;90.35;102484.13;5052615;28;20541;-77
2021/03/30 01:14:47;;;;;;;72.75;35.38;;;;;;;7.37;90.50;102480.22;5052784;28;20037;-76
2021/03/30 01:17:18;;;;;;;86.10;36.67;;;;;;;7.40;90.59;102483.53;5052617;28;20575;-77
2021/03/30 01:20:14;;;;;;;83.47;35.15;;;;;;;7.44;90.24;102486.84;5051445;28;20436;-77
2021/03/30 01:22:55;;;;;;;;;;;;;;;7.54;90.07;102473.84;5052052;28;20033;-78
2021/03/30 01:25:22;;;;;;;69.20;31.88;;;;;;;7.51;89.90;102482.84;5052409;28;19912;-78
2021/03/30 01:27:50;;;;;;;69.82;29.85;;;;;;;7.52;89.60;102484.56;5052311;28;20087;-78
2021/03/30 01:30:20;;;;;;;69.28;29.00;;;;;;;7.56;89.50;102475.44;5052197;28;20075;-77
2021/03/30 01:32:56;;;;;;;62.03;27.08;;;;;;;7.53;88.94;102486.25;5052229;28;20088;-77
2021/03/30 01:35:24;;;;;;;73.40;31.30;;;;;;;7.47;88.91;102484.00;5034437;28;20043;-77
2021/03/30 01:37:51;;;;;;;72.38;28.98;;;;;;;7.50;89.21;102474.97;5052004;28;20041;-77
2021/03/30 01:40:22;;;;;;;56.97;26.88;;;;;;;7.48;89.02;102479.53;5034588;28;20033;-77
2021/03/30 01:42:50;;;;;;;54.03;25.33;;;;;;;7.43;88.79;102479.00;5051953;28;20040;-77
2021/03/30 01:45:20;;;;;;;66.82;27.08;;;;;;;7.41;89.01;102479.06;5052215;28;20429;-76
2021/03/30 01:47:46;;;;;;;60.50;28.33;;;;;;;7.37;88.93;102477.56;5050835;28;20190;-77
2021/03/30 01:50:14;;;;;;;62.35;24.33;;;;;;;7.38;89.14;102476.63;5051199;28;20378;-77
2021/03/30 01:52:40;;;;;;;56.42;23.70;;;;;;;7.36;88.85;102473.22;5052042;28;20043;-78
2021/03/30 01:55:12;;;;;;;72.63;26.80;;;;;;;7.36;88.86;102481.19;5050835;28;20084;-77
2021/03/30 01:57:39;;;;;;;52.80;23.50;;;;;;;7.27;88.81;102473.81;5050680;28;20037;-77
2021/03/30 02:00:07;;;;;;;58.05;25.38;;;;;;;7.28;88.97;102478.16;5051730;28;20124;-77
2021/03/30 02:02:40;;;;;;;55.10;25.88;;;;;;;7.22;88.90;102483.88;5052267;28;20036;-77
2021/03/30 02:05:07;;;;;;;61.65;24.77;;;;;;;7.22;88.82;102475.91;5051644;28;20123;-76
2021/03/30 02:07:34;;;;;;;52.03;27.00;;;;;;;7.17;88.89;102485.03;5051472;28;20033;-77
2021/03/30 02:10:04;;;;;;;57.42;24.70;;;;;;;7.16;89.12;102483.31;5051347;28;20128;-78
2021/03/30 02:12:35;;;;;;;59.80;24.55;;;;;;;7.08;88.96;102488.25;5050631;28;20029;-77
2021/03/30 02:15:01;;;;;;;54.13;25.17;;;;;;;7.01;89.26;102489.59;5050392;28;20051;-77
2021/03/30 02:17:37;;;;;;;57.70;24.75;;;;;;;7.06;89.19;102481.34;5051220;28;20029;-77
2021/03/30 02:20:14;;;;;;;61.55;24.13;;;;;;;7.10;88.59;102467.78;5051702;28;20029;-77
2021/03/30 02:22:59;;;;;;;61.95;24.77;;;;;;;7.08;88.43;102471.47;5050286;28;20036;-77
2021/03/30 02:25:25;;;;;;;46.05;20.58;;;;;;;7.08;88.71;102474.97;5050315;28;20520;-77
2021/03/30 02:27:54;;;;;;;49.70;21.73;;;;;;;7.03;88.70;102466.47;5051251;28;20170;-77
2021/03/30 02:30:22;;;;;;;56.97;24.58;;;;;;;7.03;88.51;102468.25;5033796;28;20048;-76
2021/03/30 02:32:49;;;;;;;56.80;22.77;;;;;;;7.01;88.16;102478.97;5033873;28;20041;-76
2021/03/30 02:35:16;;;;;;;50.42;21.20;;;;;;;7.01;88.31;102478.97;5051423;28;20127;-77
2021/03/30 02:37:43;;;;;;;54.30;21.80;;;;;;;7.00;88.24;102476.41;5050053;28;20032;-77
2021/03/30 02:40:13;;;;;;;44.63;20.23;;;;;;;7.02;88.01;102470.03;5050329;28;20365;-77
2021/03/30 02:42:41;;;;;;;46.60;19.70;;;;;;;7.02;88.16;102478.00;5050233;28;20032;-77
2021/03/30 02:45:09;;;;;;;46.28;20.58;;;;;;;7.05;87.55;102480.50;5051271;28;20124;-77
2021/03/30 02:47:35;;;;;;;53.03;21.83;;;;;;;6.97;87.60;102485.41;5053854;28;20389;-78
2021/03/30 02:50:01;;;;;;;41.10;20.02;;;;;;;6.92;87.70;102488.38;5054337;28;20367;-78
2021/03/30 02:52:27;;;;;;;;;;;;;;;6.88;87.87;102480.69;5055679;28;20135;-78
2021/03/30 02:54:53;;;;;;;;;;;;;;;6.86;88.01;102479.94;5055672;28;19927;-78
2021/03/30 02:57:19;;;;;;;;;;;;;;;6.85;87.97;102478.22;5054669;28;19999;-78
2021/03/30 02:59:45;;;;;;;;;;;;;;;6.80;87.76;102475.03;5054351;28;20020;-77
2021/03/30 03:02:13;;;;;;;52.92;17.52;;;;;;;6.76;87.88;102471.69;5037446;28;20411;-77
2021/03/30 03:04:38;;;;;;;45.33;18.40;;;;;;;6.75;87.95;102478.81;5054880;28;20120;-78
2021/03/30 03:07:05;;;;;;;41.53;16.25;;;;;;;6.78;87.92;102477.75;5054006;28;20116;-78
2021/03/30 03:09:33;;;;;;;41.38;18.92;;;;;;;6.80;87.89;102485.63;5053809;28;20041;-77
2021/03/30 03:11:58;;;;;;;38.67;17.27;;;;;;;6.84;87.52;102498.63;5054684;28;20040;-77
2021/03/30 03:14:24;;;;;;;39.05;17.98;;;;;;;6.78;87.43;102487.53;5054662;28;20091;-78
2021/03/30 03:16:51;;;;;;;49.15;17.88;;;;;;;6.74;87.35;102485.06;5054709;28;20033;-78
2021/03/30 03:19:17;;;;;;;38.55;18.02;;;;;;;6.70;87.34;102488.84;5054457;28;20041;-78
2021/03/30 03:21:44;;;;;;;41.55;16.52;;;;;;;6.71;87.44;102479.09;5053719;28;20468;-78
2021/03/30 03:24:11;;;;;;;40.55;16.98;;;;;;;6.67;87.31;102480.22;5053688;28;20029;-78
2021/03/30 03:26:41;;;;;;;40.50;16.90;;;;;;;6.71;87.01;102477.28;5054381;28;20419;-77
2021/03/30 03:29:13;;;;;;;37.63;15.40;;;;;;;6.69;87.04;102483.63;5054181;28;20484;-78
2021/03/30 03:31:38;;;;;;;39.30;16.48;;;;;;;6.68;86.81;102485.44;5053424;28;20037;-78
2021/03/30 03:34:04;;;;;;;38.00;16.65;;;;;;;6.64;86.77;102488.38;5053555;28;20033;-76
2021/03/30 03:36:38;;;;;;;40.93;15.57;;;;;;;6.63;86.72;102494.66;5054383;28;20501;-78
2021/03/30 03:39:05;;;;;;;34.78;15.13;;;;;;;6.63;86.56;102484.03;5054067;28;20045;-77
2021/03/30 03:41:30;;;;;;;27.77;14.40;;;;;;;6.64;86.35;102486.56;5053046;28;20047;-77
2021/03/30 03:43:56;;;;;;;38.87;15.70;;;;;;;6.69;85.88;102481.81;5054265;28;20044;-77
2021/03/30 03:46:21;;;;;;;42.83;14.57;;;;;;;6.68;85.63;102484.59;5054166;28;20140;-77
2021/03/30 03:48:46;;;;;;;46.03;15.17;;;;;;;6.58;85.82;102481.66;5053971;28;20039;-78
2021/03/30 03:51:12;;;;;;;41.70;14.73;;;;;;;6.51;86.01;102480.34;5053932;28;20041;-77
2021/03/30 03:53:39;;;;;;;44.40;15.55;;;;;;;6.43;86.34;102487.88;5054093;28;20123;-79
2021/03/30 03:56:07;;;;;;;39.05;15.48;;;;;;;6.41;86.33;102487.13;5053424;28;20037;-78
2021/03/30 03:58:48;;;;;;;31.20;14.27;;;;;;;6.38;86.28;102492.63;5053324;28;20087;-78
2021/03/30 04:01:16;;;;;;;31.05;14.48;;;;;;;6.26;86.59;102487.09;5052941;28;20374;-78
2021/03/30 04:03:52;;;;;;;34.30;15.48;;;;;;;6.26;86.85;102489.75;5052942;28;20041;-78
2021/03/30 04:06:21;;;;;;;;;;;;;;;6.22;86.57;102490.88;5053391;28;20071;-79
2021/03/30 04:08:55;;;;;;;31.15;15.18;;;;;;;6.15;86.53;102486.88;5053435;28;19912;-78
2021/03/30 04:11:23;;;;;;;31.10;14.50;;;;;;;6.12;86.67;102487.06;5036562;28;20080;-77
2021/03/30 04:13:51;;;;;;;38.05;15.55;;;;;;;6.07;86.84;102489.16;5052952;28;20048;-78
2021/03/30 04:16:17;;;;;;;39.03;16.27;;;;;;;6.04;87.09;102484.00;5053693;28;20039;-78
2021/03/30 04:18:44;;;;;;;33.92;15.43;;;;;;;6.03;87.32;102487.63;5052406;28;20039;-77
2021/03/30 04:21:15;;;;;;;;;;;;;;;6.06;87.43;102487.44;5053753;28;20044;-78
2021/03/30 04:23:47;;;;;;;44.45;16.60;;;;;;;6.02;87.38;102484.13;5052471;28;19978;-78
2021/03/30 04:26:12;;;;;;;45.50;17.48;;;;;;;6.00;87.33;102486.00;5053316;28;20029;-78
2021/03/30 04:28:39;;;;;;;38.55;14.85;;;;;;;5.97;87.30;102486.19;5053044;28;20348;-77
2021/03/30 04:31:05;;;;;;;32.60;14.40;;;;;;;5.95;87.51;102493.38;5052197;28;20041;-78
2021/03/30 04:33:31;;;;;;;;;;;;;;;5.96;87.40;102488.91;5053710;28;20037;-78
2021/03/30 04:35:57;;;;;;;;;;;;;;;5.91;87.44;102489.16;5053552;28;19923;-77
2021/03/30 04:38:22;;;;;;;34.35;15.65;;;;;;;5.89;87.20;102489.25;5052106;28;19923;-77
2021/03/30 04:40:54;;;;;;;30.48;14.85;;;;;;;5.87;87.21;102485.81;5052108;28;20036;-78
2021/03/30 04:43:21;;;;;;;32.70;14.98;;;;;;;5.87;87.21;102483.16;5053259;28;20028;-78
2021/03/30 04:45:46;;;;;;;34.63;14.98;;;;;;;5.82;87.11;102487.88;5053127;28;20056;-77
2021/03/30 04:48:12;;;;;;;40.13;16.42;;;;;;;5.80;87.01;102487.13;5052791;28;20457;-78
2021/03/30 04:50:37;;;;;;;33.13;15.27;;;;;;;5.86;87.15;102500.03;5052176;28;20606;-78
2021/03/30 04:53:03;;;;;;;37.13;15.13;;;;;;;5.84;86.92;102493.13;5052302;28;20047;-77
2021/03/30 04:55:28;;;;;;;39.63;16.63;;;;;;;5.86;86.76;102497.38;5052083;28;20060;-79
2021/03/30 04:57:53;;;;;;;34.87;16.00;;;;;;;5.92;86.35;102499.69;5052780;28;20029;-78
2021/03/30 05:00:20;;;;;;;39.13;16.70;;;;;;;6.00;86.13;102511.66;5053065;28;20487;-78
2021/03/30 05:02:45;;;;;;;40.90;15.13;;;;;;;5.98;85.86;102498.50;5052666;28;20110;-78
2021/03/30 05:05:11;;;;;;;30.70;14.93;;;;;;;6.00;85.66;102498.41;5051715;28;20041;-78
2021/03/30 05:07:37;;;;;;;45.30;15.95;;;;;;;6.02;85.43;102496.53;5034680;28;20040;-78
2021/03/30 05:10:04;;;;;;;35.92;16.15;;;;;;;6.03;85.18;102504.38;5051945;28;20404;-77
2021/03/30 05:12:29;;;;;;;48.25;18.08;;;;;;;6.08;85.26;102498.81;5035041;28;20033;-79
2021/03/30 05:14:54;;;;;;;40.53;15.57;;;;;;;6.08;85.09;102504.94;5051546;28;20430;-78
2021/03/30 05:17:20;;;;;;;34.17;15.37;;;;;;;6.06;85.16;102492.72;5052446;28;20122;-79
2021/03/30 05:19:45;;;;;;;36.83;14.17;;;;;;;6.10;85.06;102502.22;5052240;28;20040;-77
2021/03/30 05:22:10;;;;;;;34.37;15.47;;;;;;;6.14;84.83;102509.06;5052538;28;20469;-78
2021/03/30 05:24:36;;;;;;;32.80;15.23;;;;;;;6.16;84.63;102512.47;5052753;28;20036;-78
2021/03/30 05:27:01;;;;;;;29.37;14.17;;;;;;;6.18;84.72;102510.59;5052293;28;20116;-78
2021/03/30 05:29:27;;;;;;;32.53;12.80;;;;;;;6.24;84.43;102510.22;5034536;28;20086;-78
2021/03/30 05:31:52;;;;;;;31.77;13.63;;;;;;;6.31;84.03;102519.50;5051162;28;20033;-64
2021/03/30 05:34:17;;;;;;;35.43;13.43;;;;;;;6.39;83.53;102515.53;5050853;28;20366;-64
2021/03/30 05:36:43;;;;;;;35.57;12.07;;;;;;;6.45;83.17;102509.88;5052089;28;20396;-64
2021/03/30 05:39:08;;;;;;;31.27;13.23;;;;;;;6.48;82.65;102518.50;5050957;28;20032;-78
2021/03/30 05:41:34;;;;;;;27.83;12.40;;;;;;;6.50;82.74;102511.28;5050984;28;20040;-77
2021/03/30 05:44:01;;;;;;;30.80;12.43;;;;;;;6.54;82.52;102512.81;5051983;28;20052;-76
2021/03/30 05:46:26;;;;;;;32.28;11.90;;;;;;;6.60;82.00;102516.91;5052000;28;20033;-76
2021/03/30 05:48:52;;;;;;;30.50;11.70;;;;;;;6.66;81.81;102511.22;5050560;28;20044;-78
2021/03/30 05:51:19;;;;;;;36.92;12.68;;;;;;;6.70;81.65;102512.75;5051965;28;20037;-78
2021/03/30 05:53:53;;;;;;;25.02;11.32;;;;;;;6.75;81.63;102515.97;5051034;28;20041;-78
2021/03/30 05:56:20;;;;;;;20.38;11.00;;;;;;;6.85;81.23;102521.56;5051908;28;20045;-77
2021/03/30 05:58:47;;;;;;;25.65;9.98;;;;;;;7.34;81.12;102517.63;5051373;28;20041;-78
2021/03/30 06:01:14;;;;;;;24.73;10.18;;;;;;;7.55;78.75;102524.22;5050849;28;20028;-78
2021/03/30 06:03:40;;;;;;;24.02;10.57;;;;;;;7.66;78.42;102538.63;5051603;28;20413;-78
2021/03/30 06:06:06;;;;;;;20.27;8.60;;;;;;;8.14;76.73;102533.66;5050754;28;20115;-78
2021/03/30 06:08:31;;;;;;;26.37;10.30;;;;;;;9.17;72.00;102535.41;5050492;28;20120;-77
2021/03/30 06:11:05;;;;;;;28.00;10.17;;;;;;;9.58;70.28;102539.59;5050534;28;20044;-76
2021/03/30 06:13:48;;;;;;;21.42;8.73;;;;;;;10.07;68.38;102535.94;5051234;28;20114;-79
2021/03/30 06:16:32;;;;;;;14.88;7.82;;;;;;;10.68;66.58;102540.28;5049971;28;20678;-79
2021/03/30 06:19:13;;;;;;;23.33;8.63;;;;;;;10.73;65.34;102538.94;5049519;28;20098;-78
2021/03/30 06:21:39;;;;;;;19.70;8.43;;;;;;;11.08;63.76;102539.81;5051258;28;20120;-78
2021/03/30 06:24:26;;;;;;;20.40;8.25;;;;;;;11.03;63.62;102536.63;5051239;28;20048;-78
2021/03/30 06:26:56;;;;;;;19.90;7.40;;;;;;;11.08;62.67;102546.00;5050046;28;20044;-78
2021/03/30 06:29:34;;;;;;;14.77;8.38;;;;;;;11.12;63.83;102541.22;5050119;28;20366;-78
2021/03/30 06:32:02;;;;;;;19.83;8.38;;;;;;;11.18;61.71;102544.28;5050234;28;20454;-77
2021/03/30 06:34:28;;;;;;;17.70;7.25;;;;;;;11.23;61.38;102553.75;5051167;28;20036;-77
2021/03/30 06:36:55;;;;;;;21.30;8.40;;;;;;;11.33;61.83;102544.00;5050301;28;20032;-78
2021/03/30 06:39:34;;;;;;;;;;;;;;;11.32;61.86;102543.16;5051606;28;20060;-78
2021/03/30 06:42:17;;;;;;;14.00;8.38;;;;;;;11.47;61.32;102558.94;5051167;28;19913;-78
2021/03/30 06:44:43;;;;;;;17.70;7.75;;;;;;;11.55;61.48;102557.34;5050318;28;20036;-77
2021/03/30 06:47:18;;;;;;;21.63;7.47;;;;;;;11.49;60.98;102563.19;5051062;28;20038;-76
2021/03/30 06:50:03;;;;;;;22.10;8.00;;;;;;;11.35;60.86;102561.63;5050782;28;20567;-78
2021/03/30 06:52:29;;;;;;;20.08;8.80;;;;;;;11.19;61.67;102577.19;5051202;28;20424;-77
2021/03/30 06:54:58;;;;;;;21.63;7.90;;;;;;;11.46;62.23;102567.97;5050989;28;20033;-77
2021/03/30 06:57:47;;;;;;;17.77;6.72;;;;;;;11.73;60.74;102573.75;5050899;28;20055;-76
2021/03/30 07:00:24;;;;;;;20.75;8.13;;;;;;;11.22;62.45;102576.13;5033328;28;20093;-77
2021/03/30 07:02:53;;;;;;;26.58;7.50;;;;;;;11.57;62.06;102581.31;5049931;28;20037;-76
2021/03/30 07:05:39;;;;;;;16.02;6.72;;;;;;;11.71;61.26;102572.16;5051110;28;20485;-77
2021/03/30 07:08:09;;;;;;;20.77;7.60;;;;;;;11.51;61.08;102576.44;5049788;28;20724;-76
2021/03/30 07:10:43;;;;;;;18.05;7.68;;;;;;;11.20;62.57;102577.09;5049906;28;20102;-76
2021/03/30 07:13:11;;;;;;;28.40;8.98;;;;;;;11.15;62.56;102578.44;5050036;28;20039;-76
2021/03/30 07:15:37;;;;;;;18.90;6.90;;;;;;;11.29;62.29;102580.84;5050894;28;20462;-76
2021/03/30 07:18:23;;;;;;;13.40;7.13;;;;;;;11.52;61.60;102578.13;5050713;28;20082;-76
2021/03/30 07:21:00;;;;;;;21.40;9.27;;;;;;;11.19;63.90;102577.19;5050918;28;20456;-77
2021/03/30 07:23:31;;;;;;;23.98;7.85;;;;;;;11.29;63.78;102572.00;5049418;28;20041;-77
2021/03/30 07:26:00;;;;;;;27.63;8.95;;;;;;;11.21;64.14;102580.59;5050685;28;20094;-76
2021/03/30 07:28:32;;;;;;;19.48;8.40;;;;;;;11.41;63.10;102582.53;5049545;28;20492;-77
2021/03/30 07:31:04;;;;;;;12.98;7.45;;;;;;;11.93;63.05;102576.63;5050648;28;20044;-76
2021/03/30 07:33:47;;;;;;;15.80;6.53;;;;;;;11.96;62.44;102584.41;5053898;28;20029;-76
2021/03/30 07:36:16;;;;;;;25.48;6.85;;;;;;;11.86;62.57;102580.75;5052898;28;20041;-76
2021/03/30 07:38:53;;;;;;;24.25;7.57;;;;;;;11.76;62.46;102584.19;5051540;28;20047;-76
2021/03/30 07:41:22;;;;;;;13.40;7.85;;;;;;;11.79;62.03;102589.28;5051632;28;20037;-77
2021/03/30 07:43:49;;;;;;;22.30;7.70;;;;;;;12.17;61.33;102596.00;5051966;28;20033;-76
2021/03/30 07:46:17;;;;;;;17.15;7.32;;;;;;;12.61;60.28;102594.06;5052770;28;20033;-76
2021/03/30 07:48:43;;;;;;;20.92;7.40;;;;;;;12.63;59.92;102597.47;5052437;28;20427;-76
2021/03/30 07:51:10;;;;;;;17.90;7.28;;;;;;;12.24;61.09;102602.56;5053158;28;20033;-76
2021/03/30 07:53:50;;;;;;;16.23;7.50;;;;;;;12.85;59.79;102606.34;5053196;28;20037;-76
2021/03/30 07:56:22;;;;;;;18.83;7.22;;;;;;;12.61;60.42;102603.97;5053175;28;20358;-76
2021/03/30 07:58:48;;;;;;;23.00;7.63;;;;;;;12.78;60.52;102610.53;5053675;28;20029;-75
2021/03/30 08:01:15;;;;;;;19.45;7.45;;;;;;;12.88;60.13;102603.44;5054100;28;20037;-75
2021/03/30 08:03:43;;;;;;;21.60;9.32;;;;;;;12.93;59.49;102603.88;5036390;28;20040;-75
2021/03/30 08:06:15;;;;;;;17.98;6.72;;;;;;;13.25;58.67;102602.88;5052871;28;20041;-75
2021/03/30 08:08:44;;;;;;;18.88;8.02;;;;;;;13.73;58.52;102610.28;5036390;28;20466;-75
2021/03/30 08:11:10;;;;;;;15.02;7.70;;;;;;;13.93;57.20;102608.50;5053668;28;20099;-75
2021/03/30 08:13:36;;;;;;;23.80;8.67;;;;;;;13.50;57.71;102623.91;5036288;28;20107;-75
2021/03/30 08:16:04;;;;;;;20.73;8.07;;;;;;;14.28;56.42;102624.06;5053645;28;20048;-75
2021/03/30 08:18:37;;;;;;;18.00;8.45;;;;;;;14.09;57.55;102624.03;5053561;28;20635;-75
2021/03/30 08:21:09;;;;;;;21.45;7.43;;;;;;;14.39;58.01;102620.38;5054012;28;20170;-75
2021/03/30 08:23:53;;;;;;;17.02;8.00;;;;;;;14.74;55.79;102624.34;5052878;28;20044;-75
2021/03/30 08:26:28;;;;;;;18.67;7.68;;;;;;;14.94;54.33;102628.69;5036086;28;20041;-75
2021/03/30 08:28:56;;;;;;;20.23;7.72;;;;;;;14.93;54.79;102637.75;5053099;28;20120;-76
2021/03/30 08:31:24;;;;;;;21.48;7.60;;;;;;;15.26;54.21;102631.97;5053491;28;20036;-75
2021/03/30 08:33:56;;;;;;;16.60;8.35;;;;;;;15.33;53.40;102625.00;5053466;28;20045;-75
2021/03/30 08:36:34;;;;;;;19.38;8.13;;;;;;;15.55;52.99;102624.63;5034882;28;20033;-75
2021/03/30 08:39:09;;;;;;;18.27;7.75;;;;;;;15.75;52.60;102628.09;5051358;28;20114;-75
2021/03/30 08:41:45;;;;;;;18.63;7.53;;;;;;;15.72;53.83;102622.16;5050579;28;20589;-75
2021/03/30 08:44:28;;;;;;;16.83;7.32;;;;;;;16.20;52.10;102631.75;5051597;28;20041;-76
2021/03/30 08:46:56;;;;;;;21.88;8.32;;;;;;;16.43;51.18;102624.88;5051815;28;20047;-75
2021/03/30 08:49:32;;;;;;;17.15;7.18;;;;;;;16.14;52.15;102625.13;5050734;28;20036;-75
2021/03/30 08:51:59;;;;;;;;;;;;;;;16.41;52.25;102628.75;5052857;28;20041;-75
2021/03/30 08:54:30;;;;;;;18.02;7.65;;;;;;;16.52;51.52;102633.91;5052948;28;19913;-75
2021/03/30 08:57:07;;;;;;;23.45;8.13;;;;;;;16.75;50.48;102634.25;5052838;28;20055;-75
2021/03/30 08:59:33;;;;;;;15.77;7.57;;;;;;;16.15;52.66;102623.28;5034804;28;20083;-75
2021/03/30 09:01:59;;;;;;;19.05;8.13;;;;;;;16.74;50.01;102637.97;5051891;28;20049;-76
2021/03/30 09:04:30;;;;;;;15.55;6.30;;;;;;;17.05;51.39;102637.53;5052674;28;20048;-75
2021/03/30 09:06:56;;;;;;;15.65;5.43;;;;;;;17.65;50.74;102632.09;5052758;28;20025;-76
2021/03/30 09:09:28;;;;;;;14.70;7.10;;;;;;;17.58;49.26;102638.28;5052447;28;20051;-75
2021/03/30 09:11:53;;;;;;;18.65;6.43;;;;;;;17.96;48.81;102634.22;5052513;28;20079;-76
2021/03/30 09:14:21;;;;;;;17.93;7.97;;;;;;;18.36;47.47;102638.00;5051591;28;20057;-75
2021/03/30 09:16:50;;;;;;;18.17;7.55;;;;;;;18.28;47.83;102638.81;5052574;28;20473;-76
2021/03/30 09:19:33;;;;;;;16.85;6.82;;;;;;;18.55;48.49;102640.34;5051929;28;20465;-77
2021/03/30 09:22:03;;;;;;;22.25;7.65;;;;;;;18.33;48.86;102631.06;5051412;28;20459;-75
2021/03/30 09:24:49;;;;;;;13.00;6.15;;;;;;;19.28;46.00;102638.56;5052040;28;20577;-76
2021/03/30 09:27:30;;;;;;;16.65;7.07;;;;;;;18.66;47.36;102636.47;5052186;28;20312;-76
2021/03/30 09:29:57;;;;;;;11.27;6.80;;;;;;;19.18;46.03;102630.66;5067877;28;20040;-76
2021/03/30 09:32:25;;;;;;;15.05;7.82;;;;;;;18.55;47.97;102629.53;5052136;28;20025;-78
2021/03/30 09:34:51;;;;;;;18.27;7.97;;;;;;;18.76;47.29;102626.34;5051282;28;20448;-77
2021/03/30 09:37:17;;;;;;;16.45;6.65;;;;;;;19.19;46.56;102621.50;5051131;28;20028;-77
2021/03/30 09:39:44;;;;;;;23.33;8.88;;;;;;;18.96;47.25;102629.53;5051834;28;20043;-77
2021/03/30 09:42:10;;;;;;;;;;;;;;;18.62;47.50;102618.88;5052328;28;20335;-78
2021/03/30 09:44:44;;;;;;;15.75;7.75;;;;;;;18.65;47.95;102623.09;5052069;28;19982;-77
2021/03/30 09:47:11;;;;;;;18.45;8.52;;;;;;;19.00;46.81;102619.19;5051884;28;20041;-78
2021/03/30 09:49:38;;;;;;;20.80;8.20;;;;;;;18.56;48.42;102620.41;5051719;28;20052;-78
2021/03/30 09:52:04;;;;;;;19.50;7.85;;;;;;;19.39;46.79;102623.81;5050863;28;20044;-78
2021/03/30 09:54:32;;;;;;;18.45;6.82;;;;;;;19.43;47.23;102622.41;5051236;28;20056;-75
2021/03/30 09:57:03;;;;;;;15.65;8.48;;;;;;;19.57;46.54;102619.00;5067482;28;20086;-78
2021/03/30 09:59:30;;;;;;;17.40;8.15;;;;;;;19.17;47.65;102606.44;5033900;28;20102;-78
2021/03/30 10:01:57;;;;;;;19.27;8.68;;;;;;;19.79;46.79;102616.53;5051643;28;20048;-78
2021/03/30 10:04:26;;;;;;;21.83;8.48;;;;;;;20.12;45.72;102614.44;5050625;28;20060;-78
2021/03/30 10:06:52;;;;;;;19.42;8.82;;;;;;;19.93;44.88;102620.34;5051731;28;20331;-78
2021/03/30 10:09:18;;;;;;;18.75;7.78;;;;;;;20.16;45.71;102618.50;5033702;28;20443;-66
2021/03/30 10:11:46;;;;;;;17.57;7.23;;;;;;;20.19;45.30;102617.28;5051434;28;20052;-66
2021/03/30 10:14:16;;;;;;;15.90;7.05;;;;;;;20.37;45.19;102616.97;5050673;28;20048;-77
2021/03/30 10:16:43;;;;;;;16.58;7.85;;;;;;;20.75;44.10;102606.16;5050567;28;20046;-78
2021/03/30 10:19:09;;;;;;;16.40;7.10;;;;;;;20.45;44.68;102604.19;5051117;28;20032;-78
2021/03/30 10:21:36;;;;;;;;;;;;;;;20.36;45.02;102602.56;5051670;28;20024;-77
2021/03/30 10:24:10;;;;;;;20.67;8.00;;;;;;;21.06;43.34;102598.69;5051391;28;20262;-78
2021/03/30 10:26:36;;;;;;;12.65;7.88;;;;;;;21.13;43.15;102598.78;5050402;28;20454;-79
2021/03/30 10:29:05;;;;;;;16.33;6.77;;;;;;;21.02;43.65;102602.78;5050183;28;20051;-77
2021/03/30 10:31:45;;;;;;;19.88;8.48;;;;;;;20.40;45.09;102603.06;5033666;28;20086;-79
2021/03/30 10:34:21;;;;;;;16.40;7.00;;;;;;;21.04;43.70;102602.59;5033560;28;20037;-78
2021/03/30 10:36:49;;;;;;;13.02;7.72;;;;;;;20.33;45.13;102596.69;5050263;28;20047;-79
2021/03/30 10:39:14;;;;;;;20.00;8.02;;;;;;;20.16;46.41;102591.38;5050919;28;20036;-77
2021/03/30 10:41:42;;;;;;;13.75;6.50;;;;;;;21.14;43.79;102594.19;5050157;28;20059;-78
2021/03/30 10:44:09;;;;;;;15.68;7.47;;;;;;;21.22;43.87;102592.22;5050129;28;20039;-79
2021/03/30 10:46:41;;;;;;;15.80;6.80;;;;;;;21.62;43.37;102594.63;5051023;28;20825;-78
2021/03/30 10:49:07;;;;;;;14.25;7.20;;;;;;;21.80;42.31;102597.75;5050801;28;20030;-78
2021/03/30 10:51:34;;;;;;;14.73;6.43;;;;;;;22.12;41.64;102596.44;5033479;28;20419;-78
2021/03/30 10:54:02;;;;;;;14.82;7.70;;;;;;;21.19;43.15;102591.72;5050186;28;20037;-78
2021/03/30 10:56:29;;;;;;;21.23;7.82;;;;;;;21.24;43.75;102597.47;5050097;28;20119;-78
2021/03/30 10:58:54;;;;;;;;;;;;;;;21.14;44.13;102588.75;5051172;28;20031;-75
2021/03/30 11:01:19;;;;;;;;;;;;;;;20.69;45.30;102598.75;5050605;28;20003;-74
2021/03/30 11:03:44;;;;;;;12.97;6.80;;;;;;;21.00;44.81;102585.00;5050052;28;20345;-78
2021/03/30 11:06:10;;;;;;;20.83;8.53;;;;;;;21.04;43.96;102578.16;5051085;28;20044;-78
2021/03/30 11:08:36;;;;;;;16.83;7.70;;;;;;;21.37;44.05;102577.75;5053733;28;20059;-78
2021/03/30 11:11:01;;;;;;;15.87;7.47;;;;;;;21.56;43.61;102587.22;5053940;28;20047;-77
2021/03/30 11:13:26;;;;;;;13.97;7.10;;;;;;;21.33;44.75;102584.59;5053951;28;20485;-78
2021/03/30 11:15:52;;;;;;;14.20;8.10;;;;;;;20.75;44.83;102579.84;5053814;28;20036;-77
2021/03/30 11:18:17;;;;;;;14.97;7.27;;;;;;;21.44;44.35;102579.56;5054552;28;20421;-77
2021/03/30 11:20:42;;;;;;;14.37;8.50;;;;;;;20.95;45.15;102584.72;5054751;28;20339;-78
2021/03/30 11:23:08;;;;;;;15.83;7.90;;;;;;;20.99;45.61;102588.75;5054737;28;20116;-78
2021/03/30 11:25:34;;;;;;;17.20;7.55;;;;;;;21.13;44.44;102582.47;5054626;28;20111;-77
2021/03/30 11:28:04;;;;;;;13.95;6.95;;;;;;;21.60;44.16;102574.94;5054342;28;20037;-78
2021/03/30 11:30:38;;;;;;;16.45;8.25;;;;;;;21.28;44.24;102583.31;5053371;28;20041;-78